Lower Earley, United Kingdom
Current Conditions -  °F | °C
As of 4:20 PM on Thursday 29 Jan 2015 (Local Time) from EGLF Reporting Station
Light Snow Light Snow  
Wind Chill: 27°   Ceiling: 800
Heat Index: 36°   Visibility: 1.2mi
Dew Point: 32°   Wind: 14mph
Humidity: 87%   Direction: 270°W
Pressure: 28.88"   Gusts: NA
Location:  51.43°N, 0.92°W
Report Text: EGLF 291620Z 27012KT 230V320 2000 +SG OVC008 02/M00 Q0978
Loading
Personal Weather Stations






























Interactive Weather Map New forecast layout! Learn more

10-Day Weather Forecast

Advertisements
Track Severe Weather on mobile